Time;durP1;ratioP1;P1;durP2;ratioP2;P2;SDS_P1;SDS_P2;PMS_P1;PMS_P2;Temp;Humidity;BMP_temperature;BMP_pressure;BME280_temperature;BME280_humidity;BME280_pressure;Samples;Min_cycle;Max_cycle;Signal;HPM_P1;HPM_P2
2022/03/27 08:18:49;;;;;;;27.60;7.68;;;13.30;70.70;;;;;;2299605;62;30091;-74
2022/03/27 08:21:16;;;;;;;32.50;6.13;;;13.30;70.50;;;;;;2291429;62;30054;-75
2022/03/27 08:23:42;;;;;;;27.00;6.38;;;13.40;72.40;;;;;;2291371;62;30103;-73
2022/03/27 08:28:55;;;;;;;25.90;6.78;;;13.50;74.40;;;;;;2279289;62;30322;-73
2022/03/27 08:31:23;;;;;;;22.13;5.63;;;13.60;74.90;;;;;;2291301;62;30240;-74
2022/03/27 08:33:49;;;;;;;25.98;6.15;;;13.60;75.20;;;;;;2291124;62;30263;-83
2022/03/27 08:36:15;;;;;;;26.92;6.10;;;13.70;75.50;;;;;;2291300;62;30100;-83
2022/03/27 08:38:41;;;;;;;19.02;5.25;;;13.80;75.70;;;;;;2291222;62;30748;-81
2022/03/27 08:41:07;;;;;;;19.45;5.43;;;13.80;75.80;;;;;;2291212;62;30045;-86
2022/03/27 08:43:33;;;;;;;25.05;6.20;;;13.90;76.00;;;;;;2284216;62;30105;-84
2022/03/27 08:45:59;;;;;;;21.10;6.00;;;14.00;76.10;;;;;;2277769;62;31140;-91
2022/03/27 08:48:26;;;;;;;22.17;5.53;;;14.10;76.20;;;;;;2284300;62;30311;-91
2022/03/27 08:51:24;;;;;;;18.70;5.10;;;14.10;76.20;;;;;;2277334;62;30302;-88
2022/03/27 08:54:05;;;;;;;19.80;5.28;;;14.10;76.30;;;;;;2285047;62;30247;-86
2022/03/27 08:56:32;;;;;;;20.33;5.47;;;14.20;76.00;;;;;;2277783;62;30391;-88
2022/03/27 08:59:05;;;;;;;15.20;4.30;;;14.20;76.10;;;;;;2284102;62;31869;-87
2022/03/27 09:01:34;;;;;;;20.80;4.90;;;14.30;76.00;;;;;;2283994;62;30445;-90
2022/03/27 09:04:04;;;;;;;18.60;4.75;;;14.40;76.00;;;;;;2283959;62;30414;-73
2022/03/27 09:06:29;;;;;;;18.42;4.45;;;14.40;76.00;;;;;;2290941;62;31318;-76
2022/03/27 09:08:55;;;;;;;18.17;4.80;;;14.40;75.80;;;;;;2290690;62;30459;-74
2022/03/27 09:11:22;;;;;;;16.27;4.55;;;14.50;75.60;;;;;;2290976;62;30302;-74
2022/03/27 09:13:50;;;;;;;16.08;4.63;;;14.50;75.50;;;;;;2276982;62;30226;-77
2022/03/27 09:16:16;;;;;;;16.92;4.65;;;14.50;75.40;;;;;;2283374;62;31513;-75
2022/03/27 09:18:50;;;;;;;15.90;4.63;;;14.60;75.30;;;;;;2283498;62;30529;-77
2022/03/27 09:21:21;;;;;;;16.17;4.57;;;14.60;75.20;;;;;;2277237;62;30443;-75
2022/03/27 09:23:59;;;;;;;13.80;4.55;;;14.60;75.10;;;;;;2283355;62;30137;-75
2022/03/27 09:26:25;;;;;;;11.98;3.90;;;14.70;74.90;;;;;;2283468;62;31257;-75
2022/03/27 09:28:58;;;;;;;12.70;4.45;;;14.70;75.00;;;;;;2273363;62;30344;-74
2022/03/27 09:31:25;;;;;;;13.50;4.10;;;14.70;74.90;;;;;;2285319;62;30126;-75
2022/03/27 09:33:54;;;;;;;13.70;4.03;;;14.70;74.80;;;;;;2285369;62;30199;-75
2022/03/27 09:36:24;;;;;;;14.90;4.30;;;14.80;74.80;;;;;;2285153;62;30171;-74
2022/03/27 09:38:59;;;;;;;14.05;4.65;;;14.80;74.70;;;;;;2277934;62;31168;-74
2022/03/27 09:41:51;;;;;;;9.90;4.22;;;14.80;74.50;;;;;;2285470;62;30210;-73
2022/03/27 09:44:17;;;;;;;;;;;14.90;74.10;;;;;;2278274;62;30220;-77
2022/03/27 09:47:15;;;;;;;11.35;3.53;;;14.90;73.70;;;;;;2285341;62;30125;-75
2022/03/27 09:49:46;;;;;;;14.05;4.00;;;14.90;73.90;;;;;;2263785;62;30500;-74
2022/03/27 09:52:19;;;;;;;11.70;3.42;;;14.90;74.40;;;;;;2284944;62;30290;-75
2022/03/27 09:54:59;;;;;;;11.23;3.92;;;14.90;74.20;;;;;;2271099;62;30156;-74
2022/03/27 09:57:36;;;;;;;12.57;3.97;;;14.90;74.30;;;;;;2277519;62;30336;-75
2022/03/27 10:00:11;;;;;;;13.02;3.55;;;15.00;74.30;;;;;;2271483;62;30479;-75
2022/03/27 10:02:38;;;;;;;9.43;2.85;;;14.90;74.10;;;;;;2285196;62;30043;-74
2022/03/27 10:05:08;;;;;;;14.85;4.15;;;15.00;74.30;;;;;;2277659;62;30295;-72
2022/03/27 10:07:47;;;;;;;12.88;3.58;;;15.00;74.20;;;;;;2277813;62;30087;-71
2022/03/27 10:10:17;;;;;;;19.88;5.47;;;15.00;74.00;;;;;;2277830;62;30398;-71
2022/03/27 10:12:45;;;;;;;20.77;5.55;;;15.00;73.00;;;;;;2284710;62;30151;-71
2022/03/27 10:15:15;;;;;;;29.83;5.53;;;15.00;71.90;;;;;;2263408;62;30132;-70
2022/03/27 10:17:46;;;;;;;19.23;4.78;;;15.00;71.90;;;;;;2259990;63;30175;-71
2022/03/27 10:20:13;;;;;;;13.60;4.18;;;14.90;72.20;;;;;;2260669;63;30062;-72
2022/03/27 10:22:46;;;;;;;14.90;4.03;;;14.90;72.60;;;;;;2266715;62;30397;-73
2022/03/27 10:25:14;;;;;;;14.93;4.03;;;14.90;72.70;;;;;;2268814;62;30309;-72
2022/03/27 10:27:41;;;;;;;13.63;4.03;;;14.90;72.70;;;;;;2268595;62;31629;-72
2022/03/27 10:30:08;;;;;;;17.15;4.57;;;14.90;72.60;;;;;;2263815;62;30855;-71
2022/03/27 10:32:35;;;;;;;12.38;4.07;;;14.90;72.60;;;;;;2268415;62;30168;-72
2022/03/27 10:35:09;;;;;;;13.98;3.78;;;14.90;72.60;;;;;;2268102;62;30085;-75
2022/03/27 10:38:02;;;;;;;15.35;4.30;;;15.00;72.60;;;;;;2268092;62;31055;-74
2022/03/27 10:41:06;;;;;;;17.40;4.22;;;15.00;72.50;;;;;;2259265;63;30259;-71
2022/03/27 10:43:51;;;;;;;13.98;3.65;;;15.00;72.30;;;;;;2260579;62;30244;-74
2022/03/27 10:46:22;;;;;;;11.80;4.25;;;15.00;72.50;;;;;;2260448;62;30451;-74
2022/03/27 10:48:50;;;;;;;16.70;4.07;;;15.00;72.60;;;;;;2260113;63;30814;-75
2022/03/27 10:51:28;;;;;;;11.00;3.65;;;15.00;72.50;;;;;;2253467;63;30931;-77
2022/03/27 10:54:20;;;;;;;13.60;4.30;;;15.10;72.50;;;;;;2259798;63;30065;-71
2022/03/27 10:56:48;;;;;;;13.65;3.72;;;15.10;72.50;;;;;;2259792;62;30318;-71
2022/03/27 10:59:24;;;;;;;15.63;3.85;;;15.10;72.60;;;;;;2259925;63;32263;-71
2022/03/27 11:02:00;;;;;;;12.07;3.50;;;15.10;72.50;;;;;;2259657;63;30786;-71
2022/03/27 11:04:43;;;;;;;10.32;3.45;;;15.20;72.60;;;;;;2253159;62;30110;-71
2022/03/27 11:07:19;;;;;;;11.88;3.45;;;15.20;72.60;;;;;;2260319;62;30223;-71
2022/03/27 11:09:45;;;;;;;11.32;3.65;;;15.20;72.60;;;;;;2260333;62;30222;-71
2022/03/27 11:12:30;;;;;;;12.73;3.53;;;15.30;72.70;;;;;;2259793;63;30098;-71
2022/03/27 11:15:05;;;;;;;11.00;3.92;;;15.30;72.50;;;;;;2259676;62;30270;-71
2022/03/27 11:17:45;;;;;;;10.48;3.70;;;15.30;72.60;;;;;;2259435;62;30360;-71
2022/03/27 11:20:23;;;;;;;10.75;3.22;;;15.30;72.50;;;;;;2259808;63;31232;-71
2022/03/27 11:22:52;;;;;;;13.43;3.45;;;15.40;72.50;;;;;;2260115;62;31336;-70
2022/03/27 11:25:27;;;;;;;10.40;3.00;;;15.40;72.50;;;;;;2253091;63;30320;-71
2022/03/27 11:28:04;;;;;;;11.30;3.45;;;15.40;72.40;;;;;;2259897;62;30272;-70
2022/03/27 11:30:31;;;;;;;8.85;3.35;;;15.50;72.50;;;;;;2259692;63;30154;-71
2022/03/27 11:33:23;;;;;;;10.57;3.65;;;15.50;72.40;;;;;;2252887;63;30427;-72
2022/03/27 11:36:04;;;;;;;9.07;3.17;;;15.50;72.10;;;;;;2257186;62;30062;-71
2022/03/27 11:38:52;;;;;;;11.68;3.28;;;15.60;73.00;;;;;;2260347;62;30678;-71
2022/03/27 11:41:25;;;;;;;7.55;3.22;;;15.60;72.10;;;;;;2260362;63;32026;-73
2022/03/27 11:43:51;;;;;;;11.40;3.25;;;15.60;72.30;;;;;;2259995;62;30419;-80
2022/03/27 11:46:30;;;;;;;12.75;3.25;;;15.60;72.20;;;;;;2254587;63;30018;-76
2022/03/27 11:48:57;;;;;;;17.15;3.90;;;15.70;71.30;;;;;;2258986;62;30242;-73
2022/03/27 11:51:25;;;;;;;14.75;3.50;;;15.70;70.80;;;;;;2267249;62;30197;-78
2022/03/27 11:53:52;;;;;;;15.07;4.38;;;15.70;69.80;;;;;;2261116;62;30314;-79
2022/03/27 11:56:18;;;;;;;16.60;4.20;;;15.70;69.20;;;;;;2260785;62;30215;-81
2022/03/27 11:59:01;;;;;;;18.65;4.47;;;15.70;68.80;;;;;;2260835;62;30377;-72
2022/03/27 12:01:26;;;;;;;12.43;3.67;;;15.70;68.90;;;;;;2267609;62;32765;-73
2022/03/27 12:03:57;;;;;;;12.10;3.78;;;15.70;68.90;;;;;;2267747;62;30112;-74
2022/03/27 12:06:25;;;;;;;15.70;3.88;;;15.60;68.40;;;;;;2267629;62;30524;-74
2022/03/27 12:08:52;;;;;;;16.27;4.03;;;15.70;68.50;;;;;;2267512;62;30489;-74
2022/03/27 12:11:20;;;;;;;12.40;3.63;;;15.70;68.30;;;;;;2267829;62;31997;-73
2022/03/27 12:13:46;;;;;;;17.63;4.00;;;15.70;68.80;;;;;;2267528;62;32143;-74
2022/03/27 12:16:23;;;;;;;13.95;4.28;;;15.70;68.80;;;;;;2267978;62;30310;-74
2022/03/27 12:18:49;;;;;;;16.05;4.65;;;15.80;67.10;;;;;;2267239;62;30114;-74
2022/03/27 12:21:18;;;;;;;16.60;4.10;;;15.80;67.40;;;;;;2267521;62;31099;-72
2022/03/27 12:23:49;;;;;;;16.65;4.00;;;15.80;67.10;;;;;;2252912;63;30839;-71
2022/03/27 12:31:55;;;;;;;16.88;4.28;;;15.90;65.90;;;;;;2259543;63;30380;-71
2022/03/27 12:34:24;;;;;;;13.90;3.63;;;15.90;66.10;;;;;;2259737;63;30453;-71
2022/03/27 12:37:09;;;;;;;11.70;3.67;;;15.90;66.30;;;;;;2259911;62;30940;-70
2022/03/27 12:40:05;;;;;;;15.45;3.95;;;16.00;65.90;;;;;;2252911;63;30116;-70
2022/03/27 12:42:40;;;;;;;16.38;4.13;;;16.00;65.70;;;;;;2259221;63;32216;-71
2022/03/27 12:45:12;;;;;;;18.05;4.00;;;16.00;66.50;;;;;;2252584;63;32064;-72
2022/03/27 12:47:44;;;;;;;12.18;3.30;;;16.10;66.60;;;;;;2259623;62;30283;-71
2022/03/27 12:50:12;;;;;;;15.63;4.00;;;16.10;67.00;;;;;;2259104;63;30564;-71
2022/03/27 12:52:45;;;;;;;16.63;3.92;;;16.20;67.10;;;;;;2259595;62;31387;-71
2022/03/27 12:55:11;;;;;;;11.93;3.40;;;16.20;67.30;;;;;;2252607;63;30320;-72
2022/03/27 12:57:59;;;;;;;13.05;3.65;;;16.20;67.50;;;;;;2259138;63;30168;-71
2022/03/27 13:00:31;;;;;;;12.13;3.80;;;16.20;67.50;;;;;;2259601;62;30131;-71
2022/03/27 13:03:13;;;;;;;14.55;3.67;;;16.30;67.60;;;;;;2258859;63;31043;-71
2022/03/27 13:05:40;;;;;;;9.07;3.38;;;16.30;67.70;;;;;;2259971;63;31509;-70
2022/03/27 13:08:08;;;;;;;13.68;3.40;;;16.30;67.90;;;;;;2259737;63;30286;-71
2022/03/27 13:10:34;;;;;;;17.55;3.67;;;16.40;67.90;;;;;;2260427;63;30275;-71
2022/03/27 13:13:02;;;;;;;11.07;3.38;;;16.40;67.90;;;;;;2259990;63;30286;-71
2022/03/27 13:15:55;;;;;;;11.48;3.53;;;16.40;67.80;;;;;;2260123;63;32127;-71
2022/03/27 13:18:31;;;;;;;8.80;3.00;;;16.50;67.30;;;;;;2273673;62;30102;-72
2022/03/27 13:20:57;;;;;;;8.38;3.50;;;16.50;67.70;;;;;;2263046;62;30291;-71
2022/03/27 13:23:26;;;;;;;6.93;3.08;;;16.50;68.00;;;;;;2277291;62;30512;-72
2022/03/27 13:25:56;;;;;;;9.73;3.28;;;16.50;68.00;;;;;;2277254;62;32245;-72
2022/03/27 13:28:22;;;;;;;10.52;3.40;;;16.60;68.20;;;;;;2277043;62;30171;-72
2022/03/27 13:30:48;;;;;;;12.25;3.13;;;16.60;68.20;;;;;;2277252;62;30336;-72
2022/03/27 13:33:15;;;;;;;8.35;2.85;;;16.60;68.20;;;;;;2277241;62;30878;-72
2022/03/27 13:35:44;;;;;;;7.22;2.70;;;16.60;68.10;;;;;;2262926;62;30221;-71
2022/03/27 13:38:09;;;;;;;8.52;2.65;;;16.70;68.40;;;;;;2277155;62;30345;-72
2022/03/27 13:43:20;;;;;;;9.57;3.20;;;16.70;68.30;;;;;;2277028;62;30987;-71
2022/03/27 13:45:46;;;;;;;9.07;3.50;;;16.70;68.00;;;;;;2277300;62;30543;-72
2022/03/27 13:48:12;;;;;;;7.22;2.80;;;16.80;68.10;;;;;;2277261;62;30466;-71
2022/03/27 13:50:38;;;;;;;8.10;2.90;;;16.80;67.90;;;;;;2276856;62;30195;-72
2022/03/27 13:53:04;;;;;;;10.82;3.38;;;16.80;67.90;;;;;;2277129;62;30300;-72
2022/03/27 13:55:30;;;;;;;7.13;2.47;;;16.80;67.80;;;;;;2269715;62;30658;-72
2022/03/27 13:58:01;;;;;;;6.50;2.40;;;16.90;67.80;;;;;;2276859;62;30207;-72
2022/03/27 14:00:29;;;;;;;6.45;2.80;;;16.90;67.80;;;;;;2277019;62;30208;-72
2022/03/27 14:02:58;;;;;;;4.75;2.10;;;16.90;67.80;;;;;;2276976;62;30756;-72
2022/03/27 14:05:24;;;;;;;4.97;2.35;;;16.90;67.70;;;;;;2276989;62;31797;-72
2022/03/27 14:07:49;;;;;;;7.10;2.60;;;16.90;67.50;;;;;;2269734;62;30345;-72
2022/03/27 14:10:15;;;;;;;8.95;2.53;;;17.00;67.50;;;;;;2269542;62;30499;-71
2022/03/27 14:12:41;;;;;;;7.90;2.40;;;17.00;67.60;;;;;;2277036;62;30888;-72
2022/03/27 14:15:08;;;;;;;7.75;2.67;;;17.00;67.50;;;;;;2276935;62;31855;-72
2022/03/27 14:17:34;;;;;;;7.63;2.72;;;17.00;67.40;;;;;;2276706;62;30255;-72
2022/03/27 14:20:01;;;;;;;5.38;2.20;;;17.00;67.40;;;;;;2277181;62;30083;-72
2022/03/27 14:22:27;;;;;;;7.90;2.78;;;17.00;67.40;;;;;;2277010;62;30257;-72
2022/03/27 14:24:53;;;;;;;5.88;2.47;;;17.10;67.40;;;;;;2269405;62;31701;-72
2022/03/27 14:27:22;;;;;;;5.15;2.17;;;17.10;67.30;;;;;;2276789;62;30820;-72
2022/03/27 14:29:48;;;;;;;6.65;2.40;;;17.10;67.30;;;;;;2276953;62;30501;-72
2022/03/27 14:32:15;;;;;;;6.78;2.65;;;17.10;67.20;;;;;;2276690;62;31170;-72
2022/03/27 14:34:41;;;;;;;4.85;2.33;;;17.10;67.30;;;;;;2269567;62;32098;-72
2022/03/27 14:37:07;;;;;;;9.25;2.88;;;17.10;67.20;;;;;;2269454;62;30289;-72
2022/03/27 14:39:36;;;;;;;6.50;2.33;;;17.10;67.20;;;;;;2273575;62;30450;-72
2022/03/27 14:42:03;;;;;;;5.90;2.40;;;17.20;67.20;;;;;;2276818;62;31460;-72
2022/03/27 14:44:29;;;;;;;5.90;2.45;;;17.20;67.30;;;;;;2269598;62;30834;-72
2022/03/27 14:46:55;;;;;;;6.47;2.47;;;17.20;67.40;;;;;;2269252;62;30136;-72
2022/03/27 14:49:24;;;;;;;4.43;2.08;;;17.20;67.30;;;;;;2276776;62;30251;-71
2022/03/27 14:51:50;;;;;;;6.50;2.30;;;17.20;67.20;;;;;;2269421;62;30246;-72
2022/03/27 14:57:01;;;;;;;4.50;2.50;;;17.20;67.20;;;;;;2276701;62;30104;-72
2022/03/27 14:59:27;;;;;;;9.02;2.65;;;17.20;67.20;;;;;;2276455;62;30571;-72
2022/03/27 15:01:52;;;;;;;6.75;2.45;;;17.20;67.20;;;;;;2276656;62;30948;-72
2022/03/27 15:04:18;;;;;;;6.18;2.53;;;17.20;67.20;;;;;;2269297;62;30244;-72
2022/03/27 15:06:44;;;;;;;4.05;2.30;;;17.20;67.20;;;;;;2276485;62;29977;-72
2022/03/27 15:09:10;;;;;;;6.55;2.35;;;17.20;67.20;;;;;;2276769;62;30036;-72
2022/03/27 15:11:36;;;;;;;5.82;2.53;;;17.20;67.30;;;;;;2276643;62;30028;-72
2022/03/27 15:14:05;;;;;;;7.20;2.55;;;17.20;67.20;;;;;;2276435;62;29992;-72
2022/03/27 15:16:31;;;;;;;5.63;2.10;;;17.30;67.30;;;;;;2276474;62;30241;-72
2022/03/27 15:18:57;;;;;;;4.82;2.15;;;17.30;67.20;;;;;;2276627;62;30414;-72
2022/03/27 15:21:23;;;;;;;5.05;2.20;;;17.30;67.20;;;;;;2262317;62;30898;-72
2022/03/27 15:23:50;;;;;;;3.72;1.98;;;17.30;67.20;;;;;;2276571;62;31536;-72
2022/03/27 15:26:17;;;;;;;4.72;2.00;;;17.30;67.20;;;;;;2269029;62;30192;-72
2022/03/27 15:28:44;;;;;;;3.50;1.90;;;17.30;67.20;;;;;;2276304;62;30462;-72
2022/03/27 15:31:19;;;;;;;5.03;2.30;;;17.30;67.20;;;;;;2276553;62;31176;-72
2022/03/27 15:33:45;;;;;;;8.43;2.30;;;17.30;67.30;;;;;;2276555;62;30568;-72
2022/03/27 15:36:11;;;;;;;5.35;2.40;;;17.30;67.40;;;;;;2268813;62;30144;-72
2022/03/27 15:38:37;;;;;;;4.95;2.10;;;17.40;67.40;;;;;;2269101;62;30222;-72
2022/03/27 15:41:03;;;;;;;4.65;2.13;;;17.40;67.30;;;;;;2276476;62;30797;-72
2022/03/27 15:43:29;;;;;;;4.75;2.13;;;17.30;67.50;;;;;;2276179;62;30450;-72
2022/03/27 15:45:57;;;;;;;3.83;1.80;;;17.40;67.30;;;;;;2276446;62;30214;-72
2022/03/27 15:48:23;;;;;;;3.90;2.00;;;17.40;67.30;;;;;;2276174;62;30250;-72
2022/03/27 15:50:49;;;;;;;5.72;1.88;;;17.40;67.30;;;;;;2276437;62;31128;-72
2022/03/27 15:53:15;;;;;;;4.25;2.00;;;17.40;67.20;;;;;;2269082;62;30615;-72
2022/03/27 15:55:43;;;;;;;5.63;2.17;;;17.40;67.20;;;;;;2276219;62;30188;-72
2022/03/27 15:58:09;;;;;;;5.53;2.30;;;17.40;67.30;;;;;;2276280;62;30201;-72
2022/03/27 16:00:35;;;;;;;4.90;2.00;;;17.40;67.40;;;;;;2262402;62;30231;-71
2022/03/27 16:03:01;;;;;;;6.30;2.35;;;17.50;67.30;;;;;;2275947;62;30068;-72
2022/03/27 16:05:27;;;;;;;19.50;2.90;;;17.50;67.20;;;;;;2276369;62;30258;-74
2022/03/27 16:07:53;;;;;;;6.60;2.50;;;17.50;67.20;;;;;;2268990;62;30283;-74
2022/03/27 16:10:28;;;;;;;5.45;2.33;;;17.50;67.20;;;;;;2262021;62;30274;-74
2022/03/27 16:12:54;;;;;;;7.28;2.55;;;17.50;67.00;;;;;;2276122;62;30633;-74
2022/03/27 16:15:21;;;;;;;7.03;2.60;;;17.60;67.10;;;;;;2276193;62;30039;-73
2022/03/27 16:17:47;;;;;;;4.60;2.05;;;17.60;66.90;;;;;;2275831;62;30279;-74
2022/03/27 16:20:19;;;;;;;8.38;2.40;;;17.60;66.80;;;;;;2276276;62;30036;-73
2022/03/27 16:22:45;;;;;;;18.27;3.97;;;17.70;66.50;;;;;;2276105;62;32251;-73
2022/03/27 16:25:11;;;;;;;8.38;2.83;;;17.70;65.10;;;;;;2275783;62;30169;-74
2022/03/27 16:27:38;;;;;;;9.35;3.17;;;17.70;64.80;;;;;;2276057;62;30257;-76
2022/03/27 16:30:06;;;;;;;11.40;3.22;;;17.70;64.30;;;;;;2276154;62;30185;-76
2022/03/27 16:32:32;;;;;;;11.68;3.20;;;17.70;64.10;;;;;;2275829;62;31121;-77
2022/03/27 16:35:01;;;;;;;11.45;3.72;;;17.70;63.60;;;;;;2276138;62;30477;-75
2022/03/27 16:37:27;;;;;;;12.70;3.72;;;17.60;63.30;;;;;;2276006;62;30225;-76
2022/03/27 16:39:53;;;;;;;9.82;3.50;;;17.60;63.10;;;;;;2276731;62;30898;-75
2022/03/27 16:42:19;;;;;;;9.32;3.10;;;17.50;62.40;;;;;;2269989;62;30410;-75
2022/03/27 16:44:45;;;;;;;9.35;3.28;;;17.50;62.70;;;;;;2269810;62;30122;-74
2022/03/27 16:47:10;;;;;;;13.68;3.60;;;17.50;62.70;;;;;;2263312;62;30443;-72
2022/03/27 16:49:36;;;;;;;15.93;3.17;;;17.50;62.80;;;;;;2277105;62;30141;-72
2022/03/27 16:52:03;;;;;;;14.23;3.70;;;17.60;63.10;;;;;;2276449;62;30550;-74
2022/03/27 16:54:30;;;;;;;13.65;3.10;;;17.60;62.80;;;;;;2270056;62;30049;-71
2022/03/27 16:56:58;;;;;;;11.60;3.25;;;17.60;63.50;;;;;;2277535;62;30154;-76
2022/03/27 16:59:24;;;;;;;16.67;3.35;;;17.60;63.60;;;;;;2277067;62;30734;-72
2022/03/27 17:01:51;;;;;;;16.83;4.00;;;17.70;64.10;;;;;;2270132;62;30217;-72
2022/03/27 17:04:17;;;;;;;13.18;3.63;;;17.70;64.40;;;;;;2279440;62;30373;-73
2022/03/27 17:06:46;;;;;;;14.90;3.95;;;17.70;64.50;;;;;;2281516;62;31171;-72
2022/03/27 17:09:12;;;;;;;11.00;3.20;;;17.70;65.40;;;;;;2281643;62;30316;-72
2022/03/27 17:11:38;;;;;;;12.95;3.55;;;17.80;65.20;;;;;;2277261;62;30270;-73
2022/03/27 17:14:04;;;;;;;11.38;3.33;;;17.70;65.20;;;;;;2280661;62;30480;-76
2022/03/27 17:16:31;;;;;;;9.55;3.30;;;17.60;65.20;;;;;;2280434;62;30401;-75
2022/03/27 17:18:57;;;;;;;7.85;3.50;;;17.60;65.50;;;;;;2277152;62;30309;-72
2022/03/27 17:21:23;;;;;;;10.73;3.28;;;17.50;65.80;;;;;;2280579;62;30292;-72
2022/03/27 17:23:49;;;;;;;10.38;3.25;;;17.50;66.10;;;;;;2281480;62;30107;-72
2022/03/27 17:26:15;;;;;;;7.75;2.92;;;17.40;66.30;;;;;;2281621;62;30405;-71
2022/03/27 17:28:40;;;;;;;9.60;3.00;;;17.40;66.40;;;;;;2281076;62;30779;-76
2022/03/27 17:31:08;;;;;;;7.80;2.75;;;17.40;66.70;;;;;;2280657;62;31081;-73
2022/03/27 17:33:34;;;;;;;8.98;3.03;;;17.40;66.70;;;;;;2275115;62;30148;-74
2022/03/27 17:36:01;;;;;;;7.13;2.65;;;17.40;66.70;;;;;;2278761;62;30220;-75
2022/03/27 17:38:27;;;;;;;7.32;2.85;;;17.40;66.70;;;;;;2274988;62;32178;-75
2022/03/27 17:40:53;;;;;;;10.40;2.58;;;17.30;66.70;;;;;;2280918;62;30656;-73
2022/03/27 17:43:19;;;;;;;9.88;2.92;;;17.30;66.80;;;;;;2280687;62;30410;-73
2022/03/27 17:45:45;;;;;;;9.05;1.92;;;17.40;66.80;;;;;;2281572;62;30269;-74
2022/03/27 17:48:12;;;;;;;6.50;2.28;;;17.40;66.70;;;;;;2281470;62;32217;-73
2022/03/27 17:50:38;;;;;;;4.72;2.03;;;17.40;66.70;;;;;;2280506;62;30590;-73
2022/03/27 17:53:04;;;;;;;6.55;2.00;;;17.30;66.60;;;;;;2280318;62;30456;-73
2022/03/27 17:55:30;;;;;;;5.10;1.90;;;17.30;66.70;;;;;;2272297;62;30419;-74
2022/03/27 17:57:57;;;;;;;4.20;1.92;;;17.30;66.70;;;;;;2280921;62;30227;-73
2022/03/27 18:00:23;;;;;;;7.50;2.47;;;17.30;66.80;;;;;;2280657;62;30575;-74
2022/03/27 18:02:49;;;;;;;6.78;2.22;;;17.30;67.00;;;;;;2280920;62;30270;-72
2022/03/27 18:05:16;;;;;;;4.47;2.00;;;17.30;67.10;;;;;;2283780;62;30167;-72
2022/03/27 18:07:43;;;;;;;5.18;2.15;;;17.30;67.20;;;;;;2284944;62;31019;-72
2022/03/27 18:10:09;;;;;;;4.05;2.17;;;17.30;67.20;;;;;;2277392;62;30354;-73
2022/03/27 18:12:34;;;;;;;11.68;2.00;;;17.20;67.40;;;;;;2277274;62;30620;-72
2022/03/27 18:15:00;;;;;;;16.23;2.40;;;17.20;67.40;;;;;;2277545;62;30616;-72
2022/03/27 18:17:26;;;;;;;8.07;2.20;;;17.20;67.60;;;;;;2284594;62;32148;-72
2022/03/27 18:19:53;;;;;;;7.57;1.85;;;17.20;67.70;;;;;;2283820;62;31421;-72
2022/03/27 18:22:21;;;;;;;5.28;2.10;;;17.20;67.70;;;;;;2274876;62;30474;-72
2022/03/27 18:24:47;;;;;;;5.50;1.80;;;17.20;67.70;;;;;;2276996;62;30215;-72
2022/03/27 18:27:13;;;;;;;3.20;1.95;;;17.20;67.80;;;;;;2284872;62;30296;-72
2022/03/27 18:29:39;;;;;;;13.57;2.45;;;17.10;67.80;;;;;;2275734;62;30603;-71
2022/03/27 18:32:08;;;;;;;4.00;1.90;;;17.10;67.90;;;;;;2279417;62;30215;-72
2022/03/27 18:34:40;;;;;;;4.10;1.88;;;17.10;68.00;;;;;;2276834;62;30527;-74
2022/03/27 18:37:06;;;;;;;5.63;2.15;;;17.10;68.10;;;;;;2277837;62;30872;-73
2022/03/27 18:39:32;;;;;;;5.63;1.90;;;17.10;68.10;;;;;;2277142;62;30345;-72
2022/03/27 18:41:57;;;;;;;3.28;1.83;;;17.10;68.90;;;;;;2277064;62;30386;-73
2022/03/27 18:44:23;;;;;;;4.10;1.70;;;17.20;68.30;;;;;;2278149;62;30517;-74
2022/03/27 18:46:49;;;;;;;3.10;1.65;;;17.10;68.20;;;;;;2275381;62;30878;-75
2022/03/27 18:49:15;;;;;;;3.83;2.00;;;17.10;68.30;;;;;;2273992;62;30553;-74
2022/03/27 18:51:41;;;;;;;3.78;1.52;;;17.10;68.30;;;;;;2277076;62;31876;-75
2022/03/27 18:54:07;;;;;;;3.15;1.40;;;17.10;68.50;;;;;;2279063;62;30996;-74
2022/03/27 18:56:33;;;;;;;3.47;2.20;;;17.10;68.50;;;;;;2279678;62;30341;-73
2022/03/27 18:59:01;;;;;;;2.92;1.73;;;17.10;68.70;;;;;;2266309;62;30352;-74
2022/03/27 19:01:31;;;;;;;4.65;1.70;;;17.10;68.70;;;;;;2277535;62;30978;-75
2022/03/27 19:03:57;;;;;;;5.22;2.00;;;17.10;68.80;;;;;;2270000;62;30238;-73
2022/03/27 19:06:23;;;;;;;4.63;1.73;;;17.10;68.80;;;;;;2270914;62;31029;-73
2022/03/27 19:08:49;;;;;;;4.05;1.90;;;17.10;68.90;;;;;;2278686;62;30306;-72
2022/03/27 19:11:15;;;;;;;1.73;1.55;;;17.10;69.00;;;;;;2279552;62;30186;-75
2022/03/27 19:13:41;;;;;;;1.85;1.65;;;17.10;69.00;;;;;;2275002;62;30521;-74
2022/03/27 19:16:07;;;;;;;2.22;1.48;;;17.00;69.00;;;;;;2280084;62;30245;-75
2022/03/27 19:18:44;;;;;;;3.17;1.73;;;17.00;69.00;;;;;;2267714;62;30053;-74
2022/03/27 19:21:25;;;;;;;6.03;2.00;;;17.00;69.10;;;;;;2266502;62;30397;-73
2022/03/27 19:23:51;;;;;;;3.50;1.63;;;17.00;69.20;;;;;;2265011;62;31924;-74
2022/03/27 19:26:19;;;;;;;1.60;1.50;;;17.00;69.10;;;;;;2265822;62;31060;-72
2022/03/27 19:28:46;;;;;;;5.85;1.80;;;17.00;69.40;;;;;;2268879;62;30411;-70
2022/03/27 19:31:12;;;;;;;2.60;1.95;;;17.10;69.40;;;;;;2270228;62;30272;-70
2022/03/27 19:33:39;;;;;;;2.67;1.80;;;17.00;69.30;;;;;;2263387;62;30460;-72
2022/03/27 19:36:05;;;;;;;2.20;1.75;;;17.10;69.40;;;;;;2269643;62;30918;-74
2022/03/27 19:38:33;;;;;;;3.92;1.70;;;17.10;69.50;;;;;;2268032;62;31526;-73
2022/03/27 19:40:59;;;;;;;3.53;1.40;;;17.00;69.40;;;;;;2262889;62;30234;-72
2022/03/27 19:43:25;;;;;;;1.73;1.40;;;17.10;70.10;;;;;;2263006;62;30587;-73
2022/03/27 19:45:52;;;;;;;1.95;1.70;;;17.10;69.70;;;;;;2270410;62;31733;-73
2022/03/27 19:48:19;;;;;;;2.65;1.20;;;17.10;69.70;;;;;;2263052;62;31309;-76
2022/03/27 19:50:47;;;;;;;1.63;1.20;;;17.10;70.10;;;;;;2270541;62;30928;-72
2022/03/27 19:53:16;;;;;;;2.08;1.60;;;17.10;70.00;;;;;;2267143;62;30430;-70
2022/03/27 19:55:43;;;;;;;1.67;1.10;;;17.10;69.80;;;;;;2270238;62;30402;-69
2022/03/27 19:58:09;;;;;;;2.83;1.63;;;17.10;69.60;;;;;;2270306;62;30786;-72
2022/03/27 20:00:35;;;;;;;1.73;1.30;;;17.10;69.90;;;;;;2271245;62;30625;-70
2022/03/27 20:03:01;;;;;;;7.47;1.58;;;17.10;69.90;;;;;;2265965;62;30356;-71
2022/03/27 20:05:30;;;;;;;4.78;1.85;;;17.10;69.70;;;;;;2270029;62;31459;-74
2022/03/27 20:07:59;;;;;;;1.48;1.20;;;17.10;70.20;;;;;;2263955;62;30217;-73
2022/03/27 20:10:26;;;;;;;5.43;1.70;;;17.10;69.90;;;;;;2263190;62;30276;-74
2022/03/27 20:12:52;;;;;;;5.25;1.17;;;17.10;69.80;;;;;;2266017;62;30388;-75
2022/03/27 20:15:18;;;;;;;4.05;1.50;;;17.10;70.20;;;;;;2260557;62;31039;-76
2022/03/27 20:17:44;;;;;;;2.95;1.17;;;17.10;70.00;;;;;;2271774;62;30838;-74
2022/03/27 20:20:13;;;;;;;2.35;1.35;;;17.10;70.20;;;;;;2278877;62;30222;-73
2022/03/27 20:22:39;;;;;;;6.32;1.48;;;17.10;70.00;;;;;;2279151;62;30533;-78
2022/03/27 20:25:06;;;;;;;8.13;1.60;;;17.10;69.70;;;;;;2279110;62;30948;-71
2022/03/27 20:27:31;;;;;;;1.10;1.05;;;17.10;70.00;;;;;;2265780;62;30419;-72
2022/03/27 20:29:59;;;;;;;1.95;1.48;;;17.10;69.80;;;;;;2272578;62;30805;-73
2022/03/27 20:32:27;;;;;;;1.30;1.20;;;17.10;70.10;;;;;;2274353;62;30235;-72
2022/03/27 20:34:54;;;;;;;1.83;1.30;;;17.20;69.90;;;;;;2269976;62;31181;-73
2022/03/27 20:37:22;;;;;;;3.67;1.15;;;17.10;69.60;;;;;;2274730;62;30237;-84
2022/03/27 20:39:48;;;;;;;1.15;0.95;;;17.10;70.30;;;;;;2267827;62;30069;-83
2022/03/27 20:42:14;;;;;;;2.00;0.90;;;17.20;69.80;;;;;;2276770;62;30025;-80
2022/03/27 20:44:40;;;;;;;1.85;1.15;;;17.20;70.10;;;;;;2267846;62;31011;-77
2022/03/27 20:47:06;;;;;;;2.20;1.42;;;17.20;69.90;;;;;;2281195;62;30486;-80
2022/03/27 20:49:34;;;;;;;1.48;1.00;;;17.20;70.50;;;;;;2277724;62;30352;-80
2022/03/27 20:52:00;;;;;;;2.35;1.20;;;17.20;70.00;;;;;;2271677;62;30473;-79
2022/03/27 20:54:27;;;;;;;2.13;0.90;;;17.20;69.90;;;;;;2268483;62;30316;-81
2022/03/27 20:56:53;;;;;;;1.15;1.10;;;17.20;69.70;;;;;;2278797;62;30725;-86
2022/03/27 20:59:20;;;;;;;1.88;0.85;;;17.20;69.80;;;;;;2277359;62;30647;-84
2022/03/27 21:01:47;;;;;;;4.97;1.00;;;17.20;70.10;;;;;;2277411;62;30367;-81
2022/03/27 21:04:13;;;;;;;1.30;1.08;;;17.20;70.00;;;;;;2282745;62;31077;-86
2022/03/27 21:06:39;;;;;;;1.58;1.30;;;17.20;69.90;;;;;;2284015;62;31255;-88
2022/03/27 21:09:05;;;;;;;1.33;1.20;;;17.20;69.70;;;;;;2282906;62;30081;-89
2022/03/27 21:11:31;;;;;;;3.47;0.90;;;17.20;69.80;;;;;;2275937;62;29787;-85
2022/03/27 21:13:58;;;;;;;0.90;0.90;;;17.20;69.80;;;;;;2268986;62;31180;-87
2022/03/27 21:16:24;;;;;;;1.27;0.77;;;17.20;69.70;;;;;;2281112;62;30742;-82
2022/03/27 21:18:50;;;;;;;1.50;0.80;;;17.20;69.90;;;;;;2281419;62;30420;-82
2022/03/27 21:21:16;;;;;;;0.80;0.80;;;17.20;70.20;;;;;;2282610;62;31125;-83
2022/03/27 21:23:45;;;;;;;1.27;0.80;;;17.20;70.00;;;;;;2282903;62;31621;-83